Archival Weather

Chicago O'Hare International

Chicago, Illinois (KORD)

Report from: Sunday, December 25, 2022 3:51 PM CST
Current time: Friday, June 14, 2024 8:22 AM CDT

Current weather – Weather history – Daily summaries
Weather forecast

Temperature-10.6°C (12.9°F)
Wind chill-18.3°C (-0.9°F)
Dew point-16.7°C (1.9°F)
Winds 10 kts (5.1 m/s, 11.5 mph) West-Southwest (240°)
Wind gusts 17 kts (8.7 m/s, 19.6 mph)
Visibility10 mi. (16.1 km)
Clouds Ceiling: Broken clouds 20,000 ft. (6,096 m)
Altimeter30.03 in.Hg (1017 mB)
Relative humidity61 %
Density altitude-3,351 ft. (-1,022 m)
Sea-level pressure101.8 kPa (1018 mB, 30.07 in.Hg)
Remarks System requires maintenance
Automated weather observing station with precipitation discriminator
Flight conditions Visual Meteorological Conditions
Raw dataKORD 252151Z 24010G17KT 10SM BKN200 M11/M17 A3003 RMK AO2 SLP184 T11061167 $
An error has occurred. This application may no longer respond until reloaded. Reload 🗙